sensor_id;sensor_type;location;lat;lon;timestamp;P1;durP1;ratioP1;P2;durP2;ratioP2
40995;SDS011;26723;57.478;12.066;2022-12-29T00:01:10;0.50;;;0.50;;
40995;SDS011;26723;57.478;12.066;2022-12-29T00:04:18;0.43;;;0.40;;
40995;SDS011;26723;57.478;12.066;2022-12-29T00:07:28;0.73;;;0.50;;
40995;SDS011;26723;57.478;12.066;2022-12-29T00:10:37;0.40;;;0.40;;
40995;SDS011;26723;57.478;12.066;2022-12-29T00:13:45;0.50;;;0.50;;
40995;SDS011;26723;57.478;12.066;2022-12-29T00:17:14;0.70;;;0.70;;
40995;SDS011;26723;57.478;12.066;2022-12-29T00:20:23;0.67;;;0.67;;
40995;SDS011;26723;57.478;12.066;2022-12-29T00:23:50;0.80;;;0.80;;
40995;SDS011;26723;57.478;12.066;2022-12-29T00:27:16;0.70;;;0.70;;
40995;SDS011;26723;57.478;12.066;2022-12-29T00:30:42;1.17;;;1.10;;
40995;SDS011;26723;57.478;12.066;2022-12-29T00:34:10;1.40;;;1.30;;
40995;SDS011;26723;57.478;12.066;2022-12-29T00:37:37;2.70;;;1.47;;
40995;SDS011;26723;57.478;12.066;2022-12-29T00:41:08;1.00;;;1.00;;
40995;SDS011;26723;57.478;12.066;2022-12-29T00:44:33;1.10;;;1.00;;
40995;SDS011;26723;57.478;12.066;2022-12-29T00:47:42;1.03;;;0.90;;
40995;SDS011;26723;57.478;12.066;2022-12-29T00:50:50;1.03;;;0.80;;
40995;SDS011;26723;57.478;12.066;2022-12-29T00:54:02;0.53;;;0.50;;
40995;SDS011;26723;57.478;12.066;2022-12-29T00:57:12;1.23;;;0.93;;
40995;SDS011;26723;57.478;12.066;2022-12-29T01:00:21;1.20;;;1.07;;
40995;SDS011;26723;57.478;12.066;2022-12-29T01:03:29;1.47;;;1.00;;
40995;SDS011;26723;57.478;12.066;2022-12-29T01:06:38;2.20;;;0.97;;
40995;SDS011;26723;57.478;12.066;2022-12-29T01:09:47;3.20;;;0.90;;
40995;SDS011;26723;57.478;12.066;2022-12-29T01:13:16;1.67;;;1.50;;
40995;SDS011;26723;57.478;12.066;2022-12-29T01:16:24;1.27;;;1.20;;
40995;SDS011;26723;57.478;12.066;2022-12-29T01:19:34;1.53;;;1.27;;
40995;SDS011;26723;57.478;12.066;2022-12-29T01:22:42;1.67;;;1.10;;
40995;SDS011;26723;57.478;12.066;2022-12-29T01:25:50;2.83;;;1.10;;
40995;SDS011;26723;57.478;12.066;2022-12-29T01:29:00;1.13;;;1.03;;
40995;SDS011;26723;57.478;12.066;2022-12-29T01:32:09;3.23;;;0.97;;
40995;SDS011;26723;57.478;12.066;2022-12-29T01:35:17;3.80;;;1.43;;
40995;SDS011;26723;57.478;12.066;2022-12-29T01:38:26;1.83;;;1.30;;
40995;SDS011;26723;57.478;12.066;2022-12-29T01:41:34;1.67;;;1.50;;
40995;SDS011;26723;57.478;12.066;2022-12-29T01:44:48;4.63;;;1.53;;
40995;SDS011;26723;57.478;12.066;2022-12-29T01:48:02;1.60;;;1.50;;
40995;SDS011;26723;57.478;12.066;2022-12-29T01:51:13;1.50;;;1.40;;
40995;SDS011;26723;57.478;12.066;2022-12-29T01:54:24;1.80;;;1.70;;
40995;SDS011;26723;57.478;12.066;2022-12-29T01:57:36;2.30;;;1.67;;
40995;SDS011;26723;57.478;12.066;2022-12-29T02:00:49;1.60;;;1.50;;
40995;SDS011;26723;57.478;12.066;2022-12-29T02:03:58;1.70;;;1.60;;
40995;SDS011;26723;57.478;12.066;2022-12-29T02:07:07;2.70;;;1.80;;
40995;SDS011;26723;57.478;12.066;2022-12-29T02:10:21;1.67;;;1.57;;
40995;SDS011;26723;57.478;12.066;2022-12-29T02:13:34;1.60;;;1.50;;
40995;SDS011;26723;57.478;12.066;2022-12-29T02:16:48;1.60;;;1.50;;
40995;SDS011;26723;57.478;12.066;2022-12-29T02:20:24;1.87;;;1.40;;
40995;SDS011;26723;57.478;12.066;2022-12-29T02:27:43;1.37;;;1.13;;
40995;SDS011;26723;57.478;12.066;2022-12-29T02:31:14;1.00;;;1.00;;
40995;SDS011;26723;57.478;12.066;2022-12-29T02:34:31;1.63;;;1.00;;
40995;SDS011;26723;57.478;12.066;2022-12-29T02:37:54;0.53;;;0.53;;
40995;SDS011;26723;57.478;12.066;2022-12-29T02:41:11;0.70;;;0.70;;
40995;SDS011;26723;57.478;12.066;2022-12-29T02:44:27;1.30;;;1.20;;
40995;SDS011;26723;57.478;12.066;2022-12-29T02:47:46;1.13;;;1.10;;
40995;SDS011;26723;57.478;12.066;2022-12-29T02:51:03;1.10;;;1.00;;
40995;SDS011;26723;57.478;12.066;2022-12-29T02:54:16;1.10;;;0.80;;
40995;SDS011;26723;57.478;12.066;2022-12-29T02:57:45;1.23;;;1.07;;
40995;SDS011;26723;57.478;12.066;2022-12-29T03:00:56;0.80;;;0.80;;
40995;SDS011;26723;57.478;12.066;2022-12-29T03:04:26;0.90;;;0.80;;
40995;SDS011;26723;57.478;12.066;2022-12-29T03:07:47;0.80;;;0.80;;
40995;SDS011;26723;57.478;12.066;2022-12-29T03:11:05;1.10;;;1.00;;
40995;SDS011;26723;57.478;12.066;2022-12-29T03:14:37;1.33;;;1.03;;
40995;SDS011;26723;57.478;12.066;2022-12-29T03:18:13;0.87;;;0.87;;
40995;SDS011;26723;57.478;12.066;2022-12-29T03:21:29;1.13;;;0.77;;
40995;SDS011;26723;57.478;12.066;2022-12-29T03:24:59;0.90;;;0.90;;
40995;SDS011;26723;57.478;12.066;2022-12-29T03:28:11;0.93;;;0.93;;
40995;SDS011;26723;57.478;12.066;2022-12-29T03:31:25;1.23;;;1.17;;
40995;SDS011;26723;57.478;12.066;2022-12-29T03:34:34;1.97;;;0.80;;
40995;SDS011;26723;57.478;12.066;2022-12-29T03:37:48;0.63;;;0.63;;
40995;SDS011;26723;57.478;12.066;2022-12-29T03:41:02;0.50;;;0.30;;
40995;SDS011;26723;57.478;12.066;2022-12-29T03:44:13;0.40;;;0.40;;
40995;SDS011;26723;57.478;12.066;2022-12-29T03:47:22;0.50;;;0.43;;
40995;SDS011;26723;57.478;12.066;2022-12-29T03:50:32;0.30;;;0.30;;
40995;SDS011;26723;57.478;12.066;2022-12-29T03:53:42;0.30;;;0.30;;
40995;SDS011;26723;57.478;12.066;2022-12-29T03:56:50;0.23;;;0.23;;
40995;SDS011;26723;57.478;12.066;2022-12-29T04:00:09;0.33;;;0.27;;
40995;SDS011;26723;57.478;12.066;2022-12-29T04:03:27;1.17;;;0.20;;
40995;SDS011;26723;57.478;12.066;2022-12-29T04:06:35;0.43;;;0.10;;
40995;SDS011;26723;57.478;12.066;2022-12-29T04:09:47;1.07;;;0.40;;
40995;SDS011;26723;57.478;12.066;2022-12-29T04:13:00;0.77;;;0.27;;
40995;SDS011;26723;57.478;12.066;2022-12-29T04:16:10;0.57;;;0.47;;
40995;SDS011;26723;57.478;12.066;2022-12-29T04:19:18;0.17;;;0.17;;
40995;SDS011;26723;57.478;12.066;2022-12-29T04:22:28;0.87;;;0.87;;
40995;SDS011;26723;57.478;12.066;2022-12-29T04:25:38;0.83;;;0.30;;
40995;SDS011;26723;57.478;12.066;2022-12-29T04:28:48;0.13;;;0.13;;
40995;SDS011;26723;57.478;12.066;2022-12-29T04:32:17;0.63;;;0.20;;
40995;SDS011;26723;57.478;12.066;2022-12-29T04:35:28;0.17;;;0.17;;
40995;SDS011;26723;57.478;12.066;2022-12-29T04:38:36;1.13;;;0.40;;
40995;SDS011;26723;57.478;12.066;2022-12-29T04:41:46;1.30;;;0.60;;
40995;SDS011;26723;57.478;12.066;2022-12-29T04:44:58;0.83;;;0.83;;
40995;SDS011;26723;57.478;12.066;2022-12-29T04:48:29;1.53;;;0.50;;
40995;SDS011;26723;57.478;12.066;2022-12-29T04:51:47;0.60;;;0.60;;
40995;SDS011;26723;57.478;12.066;2022-12-29T04:54:56;2.13;;;0.70;;
40995;SDS011;26723;57.478;12.066;2022-12-29T04:58:07;1.03;;;0.70;;
40995;SDS011;26723;57.478;12.066;2022-12-29T05:01:16;1.70;;;0.73;;
40995;SDS011;26723;57.478;12.066;2022-12-29T05:04:26;1.30;;;0.90;;
40995;SDS011;26723;57.478;12.066;2022-12-29T05:07:34;1.80;;;1.00;;
40995;SDS011;26723;57.478;12.066;2022-12-29T05:10:44;2.23;;;0.90;;
40995;SDS011;26723;57.478;12.066;2022-12-29T05:13:55;1.33;;;0.90;;
40995;SDS011;26723;57.478;12.066;2022-12-29T05:17:03;1.83;;;1.10;;
40995;SDS011;26723;57.478;12.066;2022-12-29T05:20:13;1.73;;;1.20;;
40995;SDS011;26723;57.478;12.066;2022-12-29T05:23:21;3.67;;;1.27;;
40995;SDS011;26723;57.478;12.066;2022-12-29T05:26:40;2.20;;;1.20;;
40995;SDS011;26723;57.478;12.066;2022-12-29T05:30:02;3.37;;;1.50;;
40995;SDS011;26723;57.478;12.066;2022-12-29T05:33:13;1.40;;;1.30;;
40995;SDS011;26723;57.478;12.066;2022-12-29T05:36:23;3.77;;;1.60;;
40995;SDS011;26723;57.478;12.066;2022-12-29T05:39:36;2.63;;;1.60;;
40995;SDS011;26723;57.478;12.066;2022-12-29T05:42:47;6.23;;;2.20;;
40995;SDS011;26723;57.478;12.066;2022-12-29T05:46:19;2.67;;;1.50;;
40995;SDS011;26723;57.478;12.066;2022-12-29T05:49:49;2.70;;;2.07;;
40995;SDS011;26723;57.478;12.066;2022-12-29T05:53:18;2.00;;;1.70;;
40995;SDS011;26723;57.478;12.066;2022-12-29T05:56:26;3.33;;;1.90;;
40995;SDS011;26723;57.478;12.066;2022-12-29T05:59:37;3.93;;;2.13;;
40995;SDS011;26723;57.478;12.066;2022-12-29T06:02:47;4.40;;;2.10;;
40995;SDS011;26723;57.478;12.066;2022-12-29T06:05:56;5.37;;;2.20;;
40995;SDS011;26723;57.478;12.066;2022-12-29T06:09:06;3.80;;;1.87;;
40995;SDS011;26723;57.478;12.066;2022-12-29T06:12:17;2.47;;;2.00;;
40995;SDS011;26723;57.478;12.066;2022-12-29T06:15:29;2.80;;;2.37;;
40995;SDS011;26723;57.478;12.066;2022-12-29T06:18:38;2.33;;;1.73;;
40995;SDS011;26723;57.478;12.066;2022-12-29T06:21:47;6.40;;;2.57;;
40995;SDS011;26723;57.478;12.066;2022-12-29T06:24:56;3.03;;;2.13;;
40995;SDS011;26723;57.478;12.066;2022-12-29T06:28:11;5.43;;;2.47;;
40995;SDS011;26723;57.478;12.066;2022-12-29T06:31:20;4.53;;;2.50;;
40995;SDS011;26723;57.478;12.066;2022-12-29T06:34:30;2.20;;;1.90;;
40995;SDS011;26723;57.478;12.066;2022-12-29T06:37:39;2.73;;;2.27;;
40995;SDS011;26723;57.478;12.066;2022-12-29T06:40:48;4.70;;;2.57;;
40995;SDS011;26723;57.478;12.066;2022-12-29T06:43:59;5.13;;;2.40;;
40995;SDS011;26723;57.478;12.066;2022-12-29T06:47:26;8.10;;;2.73;;
40995;SDS011;26723;57.478;12.066;2022-12-29T06:50:36;5.80;;;2.17;;
40995;SDS011;26723;57.478;12.066;2022-12-29T06:53:44;5.00;;;2.40;;
40995;SDS011;26723;57.478;12.066;2022-12-29T06:56:53;4.97;;;2.33;;
40995;SDS011;26723;57.478;12.066;2022-12-29T07:00:01;4.40;;;2.27;;
40995;SDS011;26723;57.478;12.066;2022-12-29T07:03:11;3.97;;;2.13;;
40995;SDS011;26723;57.478;12.066;2022-12-29T07:06:21;3.77;;;2.20;;
40995;SDS011;26723;57.478;12.066;2022-12-29T07:09:29;3.07;;;2.13;;
40995;SDS011;26723;57.478;12.066;2022-12-29T07:12:37;4.93;;;2.10;;
40995;SDS011;26723;57.478;12.066;2022-12-29T07:15:46;4.30;;;2.00;;
40995;SDS011;26723;57.478;12.066;2022-12-29T07:18:54;7.73;;;2.87;;
40995;SDS011;26723;57.478;12.066;2022-12-29T07:22:04;3.83;;;2.20;;
40995;SDS011;26723;57.478;12.066;2022-12-29T07:25:13;6.10;;;2.67;;
40995;SDS011;26723;57.478;12.066;2022-12-29T07:28:23;3.60;;;2.20;;
40995;SDS011;26723;57.478;12.066;2022-12-29T07:31:31;5.23;;;2.60;;
40995;SDS011;26723;57.478;12.066;2022-12-29T07:34:39;3.63;;;2.03;;
40995;SDS011;26723;57.478;12.066;2022-12-29T07:37:49;5.60;;;2.17;;
40995;SDS011;26723;57.478;12.066;2022-12-29T07:40:58;2.47;;;2.07;;
40995;SDS011;26723;57.478;12.066;2022-12-29T07:44:08;3.13;;;1.87;;
40995;SDS011;26723;57.478;12.066;2022-12-29T07:47:35;3.93;;;2.30;;
40995;SDS011;26723;57.478;12.066;2022-12-29T07:50:44;5.27;;;2.23;;
40995;SDS011;26723;57.478;12.066;2022-12-29T07:53:54;4.33;;;2.17;;
40995;SDS011;26723;57.478;12.066;2022-12-29T07:57:02;7.80;;;2.63;;
40995;SDS011;26723;57.478;12.066;2022-12-29T08:00:12;3.17;;;2.30;;
40995;SDS011;26723;57.478;12.066;2022-12-29T08:03:22;4.17;;;1.90;;
40995;SDS011;26723;57.478;12.066;2022-12-29T08:06:31;4.67;;;2.37;;
40995;SDS011;26723;57.478;12.066;2022-12-29T08:09:41;8.47;;;2.10;;
40995;SDS011;26723;57.478;12.066;2022-12-29T08:12:50;3.47;;;2.00;;
40995;SDS011;26723;57.478;12.066;2022-12-29T08:15:58;6.40;;;2.10;;
40995;SDS011;26723;57.478;12.066;2022-12-29T08:19:07;4.03;;;2.00;;
40995;SDS011;26723;57.478;12.066;2022-12-29T08:22:17;6.33;;;2.30;;
40995;SDS011;26723;57.478;12.066;2022-12-29T08:25:27;3.93;;;2.30;;
40995;SDS011;26723;57.478;12.066;2022-12-29T08:28:36;8.33;;;2.50;;
40995;SDS011;26723;57.478;12.066;2022-12-29T08:31:44;9.03;;;2.70;;
40995;SDS011;26723;57.478;12.066;2022-12-29T08:34:53;7.63;;;2.70;;
40995;SDS011;26723;57.478;12.066;2022-12-29T08:38:02;7.50;;;2.77;;
40995;SDS011;26723;57.478;12.066;2022-12-29T08:41:12;8.77;;;2.90;;
40995;SDS011;26723;57.478;12.066;2022-12-29T08:44:20;8.60;;;3.50;;
40995;SDS011;26723;57.478;12.066;2022-12-29T08:47:29;5.93;;;3.27;;
40995;SDS011;26723;57.478;12.066;2022-12-29T08:50:38;4.93;;;2.97;;
40995;SDS011;26723;57.478;12.066;2022-12-29T08:53:46;6.43;;;3.43;;
40995;SDS011;26723;57.478;12.066;2022-12-29T08:56:56;7.40;;;3.13;;
40995;SDS011;26723;57.478;12.066;2022-12-29T09:00:14;5.37;;;3.60;;
40995;SDS011;26723;57.478;12.066;2022-12-29T09:03:23;8.20;;;3.70;;
40995;SDS011;26723;57.478;12.066;2022-12-29T09:06:52;8.60;;;3.60;;
40995;SDS011;26723;57.478;12.066;2022-12-29T09:10:01;7.50;;;3.30;;
40995;SDS011;26723;57.478;12.066;2022-12-29T09:13:11;10.30;;;3.57;;
40995;SDS011;26723;57.478;12.066;2022-12-29T09:16:22;10.33;;;3.37;;
40995;SDS011;26723;57.478;12.066;2022-12-29T09:19:31;8.00;;;3.27;;
40995;SDS011;26723;57.478;12.066;2022-12-29T09:22:40;3.70;;;3.20;;
40995;SDS011;26723;57.478;12.066;2022-12-29T09:25:48;8.07;;;3.50;;
40995;SDS011;26723;57.478;12.066;2022-12-29T09:28:58;10.03;;;4.70;;
40995;SDS011;26723;57.478;12.066;2022-12-29T09:32:07;9.10;;;3.80;;
40995;SDS011;26723;57.478;12.066;2022-12-29T09:35:22;5.17;;;3.70;;
40995;SDS011;26723;57.478;12.066;2022-12-29T09:38:30;6.53;;;4.07;;
40995;SDS011;26723;57.478;12.066;2022-12-29T09:41:40;10.03;;;3.83;;
40995;SDS011;26723;57.478;12.066;2022-12-29T09:44:59;12.77;;;4.30;;
40995;SDS011;26723;57.478;12.066;2022-12-29T09:48:16;9.33;;;4.17;;
40995;SDS011;26723;57.478;12.066;2022-12-29T09:51:27;3.73;;;3.00;;
40995;SDS011;26723;57.478;12.066;2022-12-29T09:54:40;6.93;;;4.23;;
40995;SDS011;26723;57.478;12.066;2022-12-29T09:58:10;8.53;;;3.80;;
40995;SDS011;26723;57.478;12.066;2022-12-29T10:01:28;8.80;;;4.27;;
40995;SDS011;26723;57.478;12.066;2022-12-29T10:04:40;7.93;;;3.13;;
40995;SDS011;26723;57.478;12.066;2022-12-29T10:07:52;9.43;;;3.27;;
40995;SDS011;26723;57.478;12.066;2022-12-29T10:11:10;5.90;;;3.20;;
40995;SDS011;26723;57.478;12.066;2022-12-29T10:14:31;7.33;;;2.90;;
40995;SDS011;26723;57.478;12.066;2022-12-29T10:17:48;8.97;;;2.57;;
40995;SDS011;26723;57.478;12.066;2022-12-29T10:21:03;5.57;;;2.73;;
40995;SDS011;26723;57.478;12.066;2022-12-29T10:24:16;7.50;;;2.77;;
40995;SDS011;26723;57.478;12.066;2022-12-29T10:27:26;3.80;;;2.47;;
40995;SDS011;26723;57.478;12.066;2022-12-29T10:30:35;3.57;;;2.07;;
40995;SDS011;26723;57.478;12.066;2022-12-29T10:33:45;6.60;;;2.30;;
40995;SDS011;26723;57.478;12.066;2022-12-29T10:36:58;5.47;;;2.47;;
40995;SDS011;26723;57.478;12.066;2022-12-29T10:40:15;5.63;;;2.20;;
40995;SDS011;26723;57.478;12.066;2022-12-29T10:43:28;8.33;;;1.90;;
40995;SDS011;26723;57.478;12.066;2022-12-29T10:46:42;5.97;;;2.07;;
40995;SDS011;26723;57.478;12.066;2022-12-29T10:49:56;5.50;;;2.03;;
40995;SDS011;26723;57.478;12.066;2022-12-29T10:53:07;2.60;;;1.70;;
40995;SDS011;26723;57.478;12.066;2022-12-29T10:56:19;6.27;;;2.03;;
40995;SDS011;26723;57.478;12.066;2022-12-29T10:59:35;4.60;;;1.97;;
40995;SDS011;26723;57.478;12.066;2022-12-29T11:06:44;5.43;;;1.70;;
40995;SDS011;26723;57.478;12.066;2022-12-29T11:09:52;9.47;;;1.87;;
40995;SDS011;26723;57.478;12.066;2022-12-29T11:13:03;8.20;;;2.57;;
40995;SDS011;26723;57.478;12.066;2022-12-29T11:16:26;8.50;;;2.47;;
40995;SDS011;26723;57.478;12.066;2022-12-29T11:19:37;11.07;;;2.57;;
40995;SDS011;26723;57.478;12.066;2022-12-29T11:22:48;7.97;;;2.20;;
40995;SDS011;26723;57.478;12.066;2022-12-29T11:26:07;9.50;;;2.27;;
40995;SDS011;26723;57.478;12.066;2022-12-29T11:29:22;8.33;;;1.90;;
40995;SDS011;26723;57.478;12.066;2022-12-29T11:32:32;7.40;;;1.97;;
40995;SDS011;26723;57.478;12.066;2022-12-29T11:35:41;8.80;;;2.07;;
40995;SDS011;26723;57.478;12.066;2022-12-29T11:38:52;6.47;;;2.07;;
40995;SDS011;26723;57.478;12.066;2022-12-29T11:42:03;12.03;;;2.00;;
40995;SDS011;26723;57.478;12.066;2022-12-29T11:45:16;8.10;;;2.00;;
40995;SDS011;26723;57.478;12.066;2022-12-29T11:48:28;8.17;;;1.87;;
40995;SDS011;26723;57.478;12.066;2022-12-29T11:51:43;8.93;;;1.93;;
40995;SDS011;26723;57.478;12.066;2022-12-29T11:54:54;6.80;;;1.83;;
40995;SDS011;26723;57.478;12.066;2022-12-29T11:58:04;6.90;;;1.93;;
40995;SDS011;26723;57.478;12.066;2022-12-29T12:01:14;5.10;;;1.80;;
40995;SDS011;26723;57.478;12.066;2022-12-29T12:04:27;8.20;;;2.27;;
40995;SDS011;26723;57.478;12.066;2022-12-29T12:07:40;4.87;;;1.67;;
40995;SDS011;26723;57.478;12.066;2022-12-29T12:10:53;8.90;;;1.67;;
40995;SDS011;26723;57.478;12.066;2022-12-29T12:14:06;7.20;;;2.13;;
40995;SDS011;26723;57.478;12.066;2022-12-29T12:17:47;6.27;;;2.20;;
40995;SDS011;26723;57.478;12.066;2022-12-29T12:21:04;8.53;;;2.23;;
40995;SDS011;26723;57.478;12.066;2022-12-29T12:24:25;7.43;;;1.97;;
40995;SDS011;26723;57.478;12.066;2022-12-29T12:27:48;6.33;;;2.13;;
40995;SDS011;26723;57.478;12.066;2022-12-29T12:31:01;12.33;;;2.47;;
40995;SDS011;26723;57.478;12.066;2022-12-29T12:34:13;7.33;;;1.90;;
40995;SDS011;26723;57.478;12.066;2022-12-29T12:37:38;14.90;;;2.33;;
40995;SDS011;26723;57.478;12.066;2022-12-29T12:41:02;5.27;;;1.80;;
40995;SDS011;26723;57.478;12.066;2022-12-29T12:44:18;9.47;;;2.00;;
40995;SDS011;26723;57.478;12.066;2022-12-29T12:47:39;10.93;;;2.60;;
40995;SDS011;26723;57.478;12.066;2022-12-29T12:51:02;12.77;;;2.13;;
40995;SDS011;26723;57.478;12.066;2022-12-29T12:54:25;5.20;;;1.80;;
40995;SDS011;26723;57.478;12.066;2022-12-29T12:57:52;3.17;;;1.50;;
40995;SDS011;26723;57.478;12.066;2022-12-29T13:01:11;7.90;;;2.10;;
40995;SDS011;26723;57.478;12.066;2022-12-29T13:04:34;10.20;;;1.83;;
40995;SDS011;26723;57.478;12.066;2022-12-29T13:08:06;14.10;;;2.40;;
40995;SDS011;26723;57.478;12.066;2022-12-29T13:11:34;6.47;;;1.93;;
40995;SDS011;26723;57.478;12.066;2022-12-29T13:14:56;8.70;;;2.33;;
40995;SDS011;26723;57.478;12.066;2022-12-29T13:18:17;7.97;;;2.27;;
40995;SDS011;26723;57.478;12.066;2022-12-29T13:21:39;9.73;;;2.10;;
40995;SDS011;26723;57.478;12.066;2022-12-29T13:25:18;10.20;;;2.13;;
40995;SDS011;26723;57.478;12.066;2022-12-29T13:28:35;11.33;;;2.60;;
40995;SDS011;26723;57.478;12.066;2022-12-29T13:31:53;10.70;;;2.83;;
40995;SDS011;26723;57.478;12.066;2022-12-29T13:35:15;12.43;;;2.67;;
40995;SDS011;26723;57.478;12.066;2022-12-29T13:38:34;16.97;;;3.37;;
40995;SDS011;26723;57.478;12.066;2022-12-29T13:41:45;5.63;;;1.83;;
40995;SDS011;26723;57.478;12.066;2022-12-29T13:44:57;8.13;;;2.00;;
40995;SDS011;26723;57.478;12.066;2022-12-29T13:48:09;11.17;;;2.70;;
40995;SDS011;26723;57.478;12.066;2022-12-29T13:51:24;9.63;;;2.60;;
40995;SDS011;26723;57.478;12.066;2022-12-29T13:54:35;12.87;;;2.70;;
40995;SDS011;26723;57.478;12.066;2022-12-29T13:57:51;14.07;;;2.40;;
40995;SDS011;26723;57.478;12.066;2022-12-29T14:01:08;9.67;;;2.60;;
40995;SDS011;26723;57.478;12.066;2022-12-29T14:04:24;14.27;;;2.80;;
40995;SDS011;26723;57.478;12.066;2022-12-29T14:07:37;13.00;;;2.90;;
40995;SDS011;26723;57.478;12.066;2022-12-29T14:10:46;9.70;;;2.63;;
40995;SDS011;26723;57.478;12.066;2022-12-29T14:13:56;10.60;;;2.77;;
40995;SDS011;26723;57.478;12.066;2022-12-29T14:17:08;11.87;;;1.97;;
40995;SDS011;26723;57.478;12.066;2022-12-29T14:20:21;13.00;;;2.73;;
40995;SDS011;26723;57.478;12.066;2022-12-29T14:23:38;9.33;;;2.60;;
40995;SDS011;26723;57.478;12.066;2022-12-29T14:26:48;10.07;;;2.67;;
40995;SDS011;26723;57.478;12.066;2022-12-29T14:29:56;7.40;;;1.80;;
40995;SDS011;26723;57.478;12.066;2022-12-29T14:33:11;9.87;;;2.10;;
40995;SDS011;26723;57.478;12.066;2022-12-29T14:36:21;6.40;;;2.03;;
40995;SDS011;26723;57.478;12.066;2022-12-29T14:39:42;7.70;;;1.80;;
40995;SDS011;26723;57.478;12.066;2022-12-29T14:42:52;8.83;;;1.70;;
40995;SDS011;26723;57.478;12.066;2022-12-29T14:46:01;9.53;;;2.10;;
40995;SDS011;26723;57.478;12.066;2022-12-29T14:49:13;7.43;;;2.20;;
40995;SDS011;26723;57.478;12.066;2022-12-29T14:52:28;5.37;;;1.80;;
40995;SDS011;26723;57.478;12.066;2022-12-29T14:55:40;9.00;;;2.20;;
40995;SDS011;26723;57.478;12.066;2022-12-29T14:58:53;9.17;;;2.33;;
40995;SDS011;26723;57.478;12.066;2022-12-29T15:02:04;7.13;;;2.20;;
40995;SDS011;26723;57.478;12.066;2022-12-29T15:05:25;11.80;;;2.33;;
40995;SDS011;26723;57.478;12.066;2022-12-29T15:08:39;6.43;;;2.50;;
40995;SDS011;26723;57.478;12.066;2022-12-29T15:11:56;8.63;;;1.90;;
40995;SDS011;26723;57.478;12.066;2022-12-29T15:15:19;6.37;;;1.70;;
40995;SDS011;26723;57.478;12.066;2022-12-29T15:18:30;5.90;;;1.37;;
40995;SDS011;26723;57.478;12.066;2022-12-29T15:21:41;5.07;;;1.40;;
40995;SDS011;26723;57.478;12.066;2022-12-29T15:24:50;1.57;;;1.13;;
40995;SDS011;26723;57.478;12.066;2022-12-29T15:28:02;3.80;;;1.23;;
40995;SDS011;26723;57.478;12.066;2022-12-29T15:31:13;3.27;;;1.40;;
40995;SDS011;26723;57.478;12.066;2022-12-29T15:34:23;4.17;;;1.20;;
40995;SDS011;26723;57.478;12.066;2022-12-29T15:37:32;5.90;;;1.23;;
40995;SDS011;26723;57.478;12.066;2022-12-29T15:40:43;3.47;;;1.13;;
40995;SDS011;26723;57.478;12.066;2022-12-29T15:43:56;6.87;;;1.77;;
40995;SDS011;26723;57.478;12.066;2022-12-29T15:47:14;6.33;;;1.60;;
40995;SDS011;26723;57.478;12.066;2022-12-29T15:50:26;7.07;;;1.80;;
40995;SDS011;26723;57.478;12.066;2022-12-29T15:53:36;7.67;;;2.00;;
40995;SDS011;26723;57.478;12.066;2022-12-29T15:56:45;4.40;;;1.50;;
40995;SDS011;26723;57.478;12.066;2022-12-29T15:59:55;7.83;;;2.00;;
40995;SDS011;26723;57.478;12.066;2022-12-29T16:03:04;6.63;;;2.10;;
40995;SDS011;26723;57.478;12.066;2022-12-29T16:06:27;3.03;;;1.50;;
40995;SDS011;26723;57.478;12.066;2022-12-29T16:09:41;8.57;;;1.80;;
40995;SDS011;26723;57.478;12.066;2022-12-29T16:12:50;7.57;;;2.07;;
40995;SDS011;26723;57.478;12.066;2022-12-29T16:16:01;6.50;;;1.70;;
40995;SDS011;26723;57.478;12.066;2022-12-29T16:19:17;9.33;;;1.90;;
40995;SDS011;26723;57.478;12.066;2022-12-29T16:22:32;5.57;;;2.07;;
40995;SDS011;26723;57.478;12.066;2022-12-29T16:25:43;8.27;;;2.13;;
40995;SDS011;26723;57.478;12.066;2022-12-29T16:28:53;12.20;;;2.17;;
40995;SDS011;26723;57.478;12.066;2022-12-29T16:32:18;8.80;;;2.20;;
40995;SDS011;26723;57.478;12.066;2022-12-29T16:35:38;12.57;;;2.47;;
40995;SDS011;26723;57.478;12.066;2022-12-29T16:38:47;6.07;;;1.97;;
40995;SDS011;26723;57.478;12.066;2022-12-29T16:41:56;6.10;;;1.80;;
40995;SDS011;26723;57.478;12.066;2022-12-29T16:45:17;7.87;;;1.73;;
40995;SDS011;26723;57.478;12.066;2022-12-29T16:49:07;3.57;;;1.50;;
40995;SDS011;26723;57.478;12.066;2022-12-29T16:52:28;4.73;;;1.60;;
40995;SDS011;26723;57.478;12.066;2022-12-29T16:55:45;7.17;;;1.60;;
40995;SDS011;26723;57.478;12.066;2022-12-29T16:59:00;6.70;;;1.80;;
40995;SDS011;26723;57.478;12.066;2022-12-29T17:02:12;8.63;;;1.73;;
40995;SDS011;26723;57.478;12.066;2022-12-29T17:05:25;6.10;;;1.93;;
40995;SDS011;26723;57.478;12.066;2022-12-29T17:08:38;6.80;;;1.90;;
40995;SDS011;26723;57.478;12.066;2022-12-29T17:11:48;7.60;;;1.77;;
40995;SDS011;26723;57.478;12.066;2022-12-29T17:15:10;8.23;;;1.90;;
40995;SDS011;26723;57.478;12.066;2022-12-29T17:18:22;4.83;;;1.50;;
40995;SDS011;26723;57.478;12.066;2022-12-29T17:21:32;5.37;;;1.70;;
40995;SDS011;26723;57.478;12.066;2022-12-29T17:24:40;7.83;;;1.50;;
40995;SDS011;26723;57.478;12.066;2022-12-29T17:27:50;5.70;;;1.93;;
40995;SDS011;26723;57.478;12.066;2022-12-29T17:31:04;7.37;;;2.00;;
40995;SDS011;26723;57.478;12.066;2022-12-29T17:34:13;6.20;;;1.47;;
40995;SDS011;26723;57.478;12.066;2022-12-29T17:37:34;5.57;;;1.30;;
40995;SDS011;26723;57.478;12.066;2022-12-29T17:40:43;3.77;;;1.40;;
40995;SDS011;26723;57.478;12.066;2022-12-29T17:43:52;4.37;;;1.63;;
40995;SDS011;26723;57.478;12.066;2022-12-29T17:47:00;8.17;;;1.97;;
40995;SDS011;26723;57.478;12.066;2022-12-29T17:50:10;6.43;;;1.70;;
40995;SDS011;26723;57.478;12.066;2022-12-29T17:53:22;5.33;;;1.20;;
40995;SDS011;26723;57.478;12.066;2022-12-29T17:56:32;4.13;;;1.60;;
40995;SDS011;26723;57.478;12.066;2022-12-29T17:59:40;7.37;;;1.87;;
40995;SDS011;26723;57.478;12.066;2022-12-29T18:02:49;3.87;;;1.57;;
40995;SDS011;26723;57.478;12.066;2022-12-29T18:05:58;4.20;;;1.30;;
40995;SDS011;26723;57.478;12.066;2022-12-29T18:09:08;5.47;;;1.40;;
40995;SDS011;26723;57.478;12.066;2022-12-29T18:12:29;9.13;;;2.63;;
40995;SDS011;26723;57.478;12.066;2022-12-29T18:15:40;6.70;;;2.10;;
40995;SDS011;26723;57.478;12.066;2022-12-29T18:18:48;5.00;;;1.37;;
40995;SDS011;26723;57.478;12.066;2022-12-29T18:21:57;4.93;;;1.47;;
40995;SDS011;26723;57.478;12.066;2022-12-29T18:25:14;3.33;;;1.17;;
40995;SDS011;26723;57.478;12.066;2022-12-29T18:28:29;3.57;;;1.50;;
40995;SDS011;26723;57.478;12.066;2022-12-29T18:31:37;6.13;;;1.50;;
40995;SDS011;26723;57.478;12.066;2022-12-29T18:34:46;4.10;;;1.50;;
40995;SDS011;26723;57.478;12.066;2022-12-29T18:37:55;4.17;;;1.53;;
40995;SDS011;26723;57.478;12.066;2022-12-29T18:41:05;4.47;;;1.20;;
40995;SDS011;26723;57.478;12.066;2022-12-29T18:44:19;3.60;;;1.77;;
40995;SDS011;26723;57.478;12.066;2022-12-29T18:47:29;5.67;;;1.63;;
40995;SDS011;26723;57.478;12.066;2022-12-29T18:50:38;7.67;;;1.50;;
40995;SDS011;26723;57.478;12.066;2022-12-29T18:53:47;8.83;;;1.20;;
40995;SDS011;26723;57.478;12.066;2022-12-29T18:56:57;6.63;;;1.10;;
40995;SDS011;26723;57.478;12.066;2022-12-29T19:00:07;3.23;;;1.23;;
40995;SDS011;26723;57.478;12.066;2022-12-29T19:03:16;4.40;;;1.10;;
40995;SDS011;26723;57.478;12.066;2022-12-29T19:06:25;7.37;;;1.60;;
40995;SDS011;26723;57.478;12.066;2022-12-29T19:09:33;4.23;;;1.40;;
40995;SDS011;26723;57.478;12.066;2022-12-29T19:12:43;6.23;;;1.47;;
40995;SDS011;26723;57.478;12.066;2022-12-29T19:15:52;2.10;;;1.00;;